Time;durP1;ratioP1;P1;durP2;ratioP2;P2;SDS_P1;SDS_P2;PMS_P1;PMS_P2;Temp;Humidity;BMP_temperature;BMP_pressure;BME280_temperature;BME280_humidity;BME280_pressure;Samples;Min_cycle;Max_cycle;Signal;HPM_P1;HPM_P2
2021/09/01 00:01:13;;;;;;;;;28.75;25.75;;;;;16.17;72.79;101755.75;4995677;28;45412;-60
2021/09/01 00:03:39;;;;;;;;;29.25;25.75;;;;;16.13;72.11;101751.50;4996751;28;45453;-60
2021/09/01 00:06:05;;;;;;;;;26.00;24.50;;;;;16.09;72.51;101748.16;4997136;28;45417;-59
2021/09/01 00:08:31;;;;;;;;;31.50;28.50;;;;;16.05;72.89;101749.22;4995351;28;45329;-60
2021/09/01 00:10:57;;;;;;;;;26.25;24.50;;;;;16.09;72.49;101768.50;4997018;28;45310;-59
2021/09/01 00:13:22;;;;;;;;;33.00;25.25;;;;;16.06;72.57;101753.59;4996614;28;45319;-62
2021/09/01 00:15:47;;;;;;;;;26.25;21.25;;;;;16.03;72.89;101764.34;4996864;28;45188;-60
2021/09/01 00:18:13;;;;;;;;;25.00;25.00;;;;;15.99;72.81;101754.81;4979117;28;45444;-58
2021/09/01 00:20:38;;;;;;;;;28.25;24.50;;;;;15.95;74.23;101764.69;4997261;28;45469;-60
2021/09/01 00:23:04;;;;;;;;;29.75;26.00;;;;;15.93;73.48;101763.03;4996517;28;45301;-60
2021/09/01 00:25:29;;;;;;;;;28.00;24.50;;;;;15.95;73.45;101766.47;4996845;28;45314;-60
2021/09/01 00:27:55;;;;;;;;;31.25;26.25;;;;;15.93;73.42;101765.69;4996751;28;45825;-61
2021/09/01 00:30:20;;;;;;;;;27.50;22.25;;;;;15.91;73.89;101763.09;4996589;28;45360;-59
2021/09/01 00:32:52;;;;;;;;;31.75;24.25;;;;;15.90;74.00;101767.56;4979050;28;46342;-60
2021/09/01 00:35:17;;;;;;;;;33.75;28.75;;;;;15.87;74.29;101767.66;4996012;28;45250;-59
2021/09/01 00:37:42;;;;;;;;;30.75;26.75;;;;;15.83;75.47;101763.38;4996476;28;45202;-60
2021/09/01 00:40:08;;;;;;;;;30.50;28.00;;;;;15.83;74.47;101765.19;4997026;28;45532;-61
2021/09/01 00:42:35;;;;;;;;;26.50;20.50;;;;;15.81;74.25;101759.09;4996342;28;45433;-59
2021/09/01 00:45:05;;;;;;;;;25.00;24.75;;;;;15.78;74.18;101763.59;4996373;28;45714;-59
2021/09/01 00:47:30;;;;;;;;;27.00;18.75;;;;;15.53;74.84;101734.59;4996310;28;45376;-59
2021/09/01 00:49:56;;;;;;;;;39.75;32.25;;;;;15.70;74.39;101759.53;4996400;28;45496;-60
2021/09/01 00:52:22;;;;;;;;;32.50;28.25;;;;;15.68;75.24;101764.91;4996197;28;46149;-60
2021/09/01 00:54:48;;;;;;;;;25.75;23.50;;;;;15.66;74.84;101765.91;4996262;28;45433;-60
2021/09/01 00:57:16;;;;;;;;;27.00;26.00;;;;;15.66;75.70;101771.22;4996247;28;45202;-60
2021/09/01 00:59:43;;;;;;;;;27.00;20.75;;;;;15.61;75.00;101764.31;4996539;28;45823;-60
2021/09/01 01:02:08;;;;;;;;;32.75;29.25;;;;;15.62;75.26;101763.38;4996072;28;46612;-60
2021/09/01 01:04:35;;;;;;;;;28.50;23.25;;;;;15.60;75.63;101778.50;4995900;28;45490;-59
2021/09/01 01:07:03;;;;;;;;;31.75;23.50;;;;;15.56;75.21;101766.28;4995995;28;45432;-60
2021/09/01 01:09:31;;;;;;;;;33.00;27.50;;;;;15.56;75.92;101763.63;4996249;28;45592;-60
2021/09/01 01:12:03;;;;;;;;;29.00;25.00;;;;;15.54;75.71;101762.84;4978090;28;46404;-59
2021/09/01 01:14:31;;;;;;;;;33.75;28.00;;;;;15.47;75.96;101764.03;4978474;28;45407;-59
2021/09/01 01:16:57;;;;;;;;;22.50;21.25;;;;;15.48;75.73;101768.41;4995947;28;45392;-59
2021/09/01 01:19:22;;;;;;;;;27.75;26.75;;;;;15.49;75.99;101767.47;4996043;28;45378;-59
2021/09/01 01:21:47;;;;;;;;;29.75;26.50;;;;;15.49;76.28;101767.47;4995953;28;46151;-58
2021/09/01 01:24:13;;;;;;;;;31.25;27.50;;;;;15.49;76.05;101759.53;4996058;28;45449;-58
2021/09/01 01:26:38;;;;;;;;;30.50;28.25;;;;;15.51;75.86;101765.63;4996093;28;45409;-59
2021/09/01 01:29:08;;;;;;;;;29.25;25.50;;;;;15.51;76.54;101757.66;4995942;28;45555;-60
2021/09/01 01:31:36;;;;;;;;;32.50;25.75;;;;;15.52;75.58;101755.91;4995679;28;46287;-60
2021/09/01 01:34:02;;;;;;;;;30.75;26.00;;;;;15.47;76.12;101750.78;4995493;28;45475;-60
2021/09/01 01:36:28;;;;;;;;;31.25;27.00;;;;;15.52;75.84;101755.91;4995557;28;45297;-60
2021/09/01 01:38:53;;;;;;;;;32.25;27.75;;;;;15.51;76.30;101751.53;4995567;28;45451;-60
2021/09/01 01:41:19;;;;;;;;;30.00;27.25;;;;;15.45;76.73;101750.84;4995271;28;45408;-60
2021/09/01 01:43:48;;;;;;;;;31.25;27.75;;;;;15.45;76.34;101752.63;4995422;28;45373;-58
2021/09/01 01:46:14;;;;;;;;;33.00;28.50;;;;;15.46;76.56;101751.69;4994838;28;45954;-58
2021/09/01 01:48:40;;;;;;;;;33.00;29.75;;;;;15.46;76.04;101755.22;4995889;28;45235;-59
2021/09/01 01:51:06;;;;;;;;;33.25;26.00;;;;;15.46;76.17;101759.66;4994232;28;46723;-59
2021/09/01 01:53:31;;;;;;;;;33.75;28.75;;;;;15.46;76.27;101759.66;4995308;28;45358;-59
2021/09/01 01:55:57;;;;;;;;;27.00;24.50;;;;;15.47;75.55;101756.06;4977754;28;45353;-59
2021/09/01 01:58:22;;;;;;;;;34.50;30.00;;;;;15.43;76.79;101749.19;4995402;28;45360;-59
2021/09/01 02:00:49;;;;;;;;;29.50;26.00;;;;;15.48;75.68;101763.97;4993674;28;47319;-58
2021/09/01 02:03:15;;;;;;;;;36.75;28.25;;;;;15.47;76.31;101753.44;4977682;28;45476;-58
2021/09/01 02:05:40;;;;;;;;;42.50;33.25;;;;;15.50;76.44;101755.94;4993972;28;45388;-58
2021/09/01 02:08:06;;;;;;;;;39.25;31.25;;;;;15.53;76.07;101757.63;4995006;28;45601;-58
2021/09/01 02:10:31;;;;;;;;;31.00;27.00;;;;;15.50;76.08;101753.28;4994881;28;45626;-61
2021/09/01 02:12:56;;;;;;;;;32.00;27.50;;;;;15.52;76.50;101763.84;4977070;28;45471;-58
2021/09/01 02:15:22;;;;;;;;;36.00;30.00;;;;;15.46;77.01;101759.66;4994984;28;45334;-59
2021/09/01 02:17:47;;;;;;;;;33.50;28.75;;;;;15.51;76.60;101767.44;4977497;28;45352;-59
2021/09/01 02:20:14;;;;;;;;;32.00;28.00;;;;;15.50;76.20;101766.56;4995064;28;46629;-59
2021/09/01 02:22:41;;;;;;;;;32.25;29.50;;;;;15.49;76.06;101764.81;4977214;28;45265;-59
2021/09/01 02:25:07;;;;;;;;;29.75;27.75;;;;;15.55;75.90;101767.22;4994989;28;45422;-60
2021/09/01 02:27:32;;;;;;;;;35.25;31.50;;;;;15.55;75.73;101767.22;4994962;28;45545;-60
2021/09/01 02:29:57;;;;;;;;;32.75;29.25;;;;;15.57;76.05;101775.97;4994463;28;45298;-59
2021/09/01 02:32:23;;;;;;;;;31.75;28.25;;;;;15.57;75.76;101778.63;4976830;28;45638;-60
2021/09/01 02:34:49;;;;;;;;;32.75;29.75;;;;;15.62;76.01;101774.00;4993385;28;45333;-60
2021/09/01 02:37:14;;;;;;;;;31.50;30.00;;;;;15.64;75.49;101773.94;4977584;28;45540;-60
2021/09/01 02:39:40;;;;;;;;;36.00;30.50;;;;;15.66;75.32;101760.59;4994556;28;45391;-60
2021/09/01 02:42:05;;;;;;;;;31.25;27.75;;;;;15.73;75.31;101773.53;4994606;28;45328;-60
2021/09/01 02:44:31;;;;;;;;;37.00;31.50;;;;;15.72;75.06;101770.94;4995050;28;45395;-60
2021/09/01 02:46:57;;;;;;;;;35.25;28.25;;;;;15.72;75.23;101765.63;4994931;28;45353;-60
2021/09/01 02:49:26;;;;;;;;;37.75;31.25;;;;;15.74;74.66;101772.63;4994614;28;46488;-60
2021/09/01 02:51:51;;;;;;;;;33.50;26.00;;;;;15.74;75.41;101771.75;4976987;28;45428;-60
2021/09/01 02:54:17;;;;;;;;;38.25;32.00;;;;;15.70;75.88;101765.72;4994589;28;45448;-59
2021/09/01 02:56:43;;;;;;;;;39.00;32.75;;;;;15.67;75.09;101770.28;4995160;28;45592;-59
2021/09/01 02:59:08;;;;;;;;;36.75;28.75;;;;;15.71;75.25;101769.22;4979458;28;47575;-59
2021/09/01 03:01:33;;;;;;;;;41.00;29.00;;;;;15.69;74.89;101761.34;4997758;28;45435;-60
2021/09/01 03:03:59;;;;;;;;;40.25;31.50;;;;;15.73;75.18;101767.34;4980217;28;45292;-59
2021/09/01 03:06:24;;;;;;;;;35.50;31.25;;;;;15.74;74.91;101772.63;4998163;28;45620;-58
2021/09/01 03:08:50;;;;;;;;;33.25;31.25;;;;;15.63;74.76;101751.00;4997624;28;46437;-58
2021/09/01 03:11:15;;;;;;;;;35.25;32.00;;;;;15.70;74.78;101778.97;4998322;28;45312;-60
2021/09/01 03:13:40;;;;;;;;;38.00;30.75;;;;;15.69;75.32;101773.72;4998152;28;45436;-58
2021/09/01 03:16:06;;;;;;;;;33.50;29.75;;;;;15.66;75.46;101773.84;4996711;28;45687;-59
2021/09/01 03:18:31;;;;;;;;;34.50;30.00;;;;;15.65;75.27;101774.78;4997672;28;46218;-59
2021/09/01 03:20:57;;;;;;;;;35.75;30.25;;;;;15.69;75.02;101773.72;4997618;28;45234;-60
2021/09/01 03:23:22;;;;;;;;;39.50;31.00;;;;;15.69;75.16;101771.06;4979892;28;45259;-60
2021/09/01 03:25:47;;;;;;;;;42.00;32.25;;;;;15.69;75.34;101771.06;4998204;28;45203;-60
2021/09/01 03:28:13;;;;;;;;;32.25;28.00;;;;;15.67;75.46;101770.28;4995943;28;48414;-60
2021/09/01 03:30:38;;;;;;;;;36.00;32.75;;;;;15.58;75.17;101772.41;4979901;28;45406;-60
2021/09/01 03:33:04;;;;;;;;;32.50;31.75;;;;;15.60;75.28;101770.53;4997675;28;45273;-59
2021/09/01 03:35:29;;;;;;;;;35.00;29.75;;;;;15.64;75.33;101768.63;4997853;28;45711;-58
2021/09/01 03:37:55;;;;;;;;;30.00;26.00;;;;;15.67;75.23;101767.63;4997181;28;46240;-59
2021/09/01 03:40:20;;;;;;;;;37.75;30.00;;;;;15.65;75.36;101764.19;4979514;28;45392;-59
2021/09/01 03:42:46;;;;;;;;;37.00;31.00;;;;;15.59;75.51;101766.16;4997817;28;45477;-59
2021/09/01 03:45:12;;;;;;;;;38.00;31.75;;;;;15.58;75.32;101767.09;4997871;28;45413;-59
2021/09/01 03:47:37;;;;;;;;;29.50;26.50;;;;;15.55;75.52;101764.56;4997065;28;46669;-59
2021/09/01 03:50:05;;;;;;;;;36.50;30.00;;;;;15.58;75.10;101767.09;4979264;28;45439;-59
2021/09/01 03:52:31;;;;;;;;;30.25;25.75;;;;;15.57;75.05;101773.31;4997180;28;45361;-59
2021/09/01 03:54:56;;;;;;;;;34.00;30.00;;;;;15.52;75.20;101764.69;4963510;28;45240;-59
2021/09/01 03:57:21;;;;;;;;;31.00;25.75;;;;;15.48;75.03;101765.75;4996862;28;45356;-59
2021/09/01 03:59:47;;;;;;;;;25.75;23.50;;;;;15.49;75.21;101764.81;4997147;28;45306;-59
2021/09/01 04:02:12;;;;;;;;;28.50;27.00;;;;;15.45;75.56;101772.06;4997047;28;45574;-60
2021/09/01 04:04:38;;;;;;;;;32.00;27.00;;;;;15.45;75.69;101765.88;4997412;28;45479;-60
2021/09/01 04:07:04;;;;;;;;;30.50;27.00;;;;;15.45;75.35;101771.19;4996695;28;45332;-60
2021/09/01 04:09:30;;;;;;;;;27.25;25.75;;;;;15.48;75.85;101773.72;4995905;28;45284;-59
2021/09/01 04:11:55;;;;;;;;;32.25;30.00;;;;;15.45;75.38;101769.41;4996968;28;45471;-59
2021/09/01 04:14:21;;;;;;;;;30.25;29.00;;;;;15.47;75.03;101769.34;4997466;28;45631;-59
2021/09/01 04:16:47;;;;;;;;;32.25;27.25;;;;;15.46;75.58;101778.22;4996754;28;45699;-59
2021/09/01 04:19:12;;;;;;;;;31.25;27.50;;;;;15.48;74.91;101763.09;4996616;28;45406;-59
2021/09/01 04:21:38;;;;;;;;;29.50;20.25;;;;;15.49;75.34;101775.44;4979000;28;45427;-60
2021/09/01 04:24:03;;;;;;;;;32.75;26.25;;;;;15.45;75.35;101765.88;4996963;28;45433;-60
2021/09/01 04:26:29;;;;;;;;;31.00;27.75;;;;;15.45;74.97;101780.03;4996490;28;46436;-59
2021/09/01 04:28:54;;;;;;;;;33.25;31.50;;;;;15.43;75.20;101770.38;4978668;28;45612;-59
2021/09/01 04:31:20;;;;;;;;;34.75;27.00;;;;;15.43;75.32;101765.97;4996861;28;45313;-60
2021/09/01 04:33:45;;;;;;;;;29.00;28.25;;;;;15.45;74.94;101760.59;4996731;28;45424;-60
2021/09/01 04:36:11;;;;;;;;;32.75;30.00;;;;;15.47;74.93;101767.56;4978502;28;46430;-60
2021/09/01 04:38:36;;;;;;;;;33.25;30.25;;;;;15.46;75.11;101771.13;4996148;28;45376;-59
2021/09/01 04:41:02;;;;;;;;;33.00;31.25;;;;;15.47;75.05;101769.34;4996327;28;45602;-59
2021/09/01 04:43:27;;;;;;;;;36.75;32.00;;;;;15.45;74.71;101769.41;4996481;28;45520;-59
2021/09/01 04:45:52;;;;;;;;;32.75;30.50;;;;;15.48;75.10;101784.31;4994823;28;47274;-59
2021/09/01 04:48:18;;;;;;;;;35.00;32.25;;;;;15.50;74.63;101784.28;4996692;28;45353;-59
2021/09/01 04:50:43;;;;;;;;;35.75;29.50;;;;;15.54;74.55;101788.50;4996554;28;45428;-59
2021/09/01 04:53:09;;;;;;;;;35.00;31.00;;;;;15.57;74.42;101791.88;4996549;28;45193;-59
2021/09/01 04:55:34;;;;;;;;;31.25;29.25;;;;;15.56;74.54;101792.81;4996195;28;45533;-60
2021/09/01 04:58:00;;;;;;;;;39.50;32.25;;;;;15.61;74.30;101790.81;4996092;28;45167;-58
2021/09/01 05:00:26;;;;;;;;;39.00;32.50;;;;;15.58;74.43;101785.66;4995886;28;45406;-59
2021/09/01 05:02:51;;;;;;;;;34.75;29.25;;;;;15.65;74.37;101790.69;4978715;28;45577;-59
2021/09/01 05:05:17;;;;;;;;;33.75;27.25;;;;;15.63;74.30;101794.28;4995809;28;46525;-60
2021/09/01 05:07:42;;;;;;;;;34.75;29.75;;;;;15.64;73.89;101789.84;4995585;28;45369;-58
2021/09/01 05:10:08;;;;;;;;;36.00;30.50;;;;;15.66;74.25;101789.78;4996182;28;45768;-60
2021/09/01 05:12:33;;;;;;;;;33.25;29.75;;;;;15.62;73.88;101778.44;4996025;28;45384;-59
2021/09/01 05:14:59;;;;;;;;;38.00;34.00;;;;;15.58;74.34;101777.69;4996043;28;46340;-59
2021/09/01 05:17:24;;;;;;;;;35.25;30.00;;;;;15.55;74.29;101779.63;4996094;28;45790;-60
2021/09/01 05:19:50;;;;;;;;;35.50;30.75;;;;;15.51;74.15;101776.22;4996247;28;45571;-59
2021/09/01 05:22:21;;;;;;;;;31.50;27.75;;;;;15.56;73.87;101787.50;4994645;28;45527;-59
2021/09/01 05:24:55;;;;;;;;;28.75;25.50;;;;;15.57;73.67;101783.94;4995792;28;45412;-59
2021/09/01 05:27:22;;;;;;;;;36.75;27.50;;;;;15.57;73.88;101783.09;4996089;28;45476;-61
2021/09/01 05:29:51;;;;;;;;;29.50;26.50;;;;;15.60;73.79;101788.25;4995445;28;45516;-60
2021/09/01 05:32:18;;;;;;;;;34.50;29.00;;;;;15.58;74.00;101790.13;4995586;28;45635;-60
2021/09/01 05:34:44;;;;;;;;;30.50;29.75;;;;;15.56;74.05;101792.81;4994178;28;47335;-60
2021/09/01 05:37:12;;;;;;;;;32.25;27.75;;;;;15.56;74.00;101792.81;4995337;28;45397;-59
2021/09/01 05:39:41;;;;;;;;;28.25;26.50;;;;;15.58;73.98;101795.41;4978049;28;45408;-59
2021/09/01 05:42:08;;;;;;;;;28.00;25.00;;;;;15.51;74.11;101797.44;4994488;28;45592;-60
2021/09/01 05:44:35;;;;;;;;;30.50;26.25;;;;;15.47;74.36;101798.50;4995351;28;47360;-59
2021/09/01 05:47:01;;;;;;;;;30.00;26.25;;;;;15.43;74.57;101804.84;4993738;28;45381;-60
2021/09/01 05:49:29;;;;;;;;;39.75;32.25;;;;;15.44;74.42;101817.19;4995188;28;45365;-61
2021/09/01 05:51:56;;;;;;;;;30.75;29.00;;;;;15.46;73.95;101815.34;4995992;28;45391;-60
2021/09/01 05:54:21;;;;;;;;;35.25;31.25;;;;;15.53;74.00;101818.63;4977672;28;47513;-64
2021/09/01 05:56:51;;;;;;;;;36.50;25.75;;;;;15.54;74.12;101807.94;4995433;28;45335;-60
2021/09/01 05:59:20;;;;;;;;;31.00;27.00;;;;;15.58;73.63;101814.81;4995737;28;45341;-62
2021/09/01 06:01:54;;;;;;;;;28.75;27.00;;;;;15.64;73.53;101811.06;4995362;28;45556;-62
2021/09/01 06:04:24;;;;;;;;;37.75;31.25;;;;;15.58;73.82;101811.31;4995072;28;45601;-68
2021/09/01 06:06:50;;;;;;;;;34.25;29.50;;;;;15.58;73.81;101817.47;4977299;28;45447;-64
2021/09/01 06:09:16;;;;;;;;;34.25;30.25;;;;;15.60;73.89;101806.81;4995317;28;45453;-61
2021/09/01 06:11:47;;;;;;;;;31.50;27.25;;;;;15.63;73.70;101810.19;4995361;28;45393;-61
2021/09/01 06:14:12;;;;;;;;;32.50;28.00;;;;;15.61;73.92;101817.34;4995383;28;45486;-61
2021/09/01 06:16:37;;;;;;;;;29.75;27.50;;;;;15.57;73.79;101804.31;4995465;28;45847;-64
2021/09/01 06:19:03;;;;;;;;;33.00;27.00;;;;;15.57;73.61;101799.84;4995573;28;45357;-60
2021/09/01 06:21:28;;;;;;;;;32.50;26.50;;;;;15.63;73.46;101804.03;4995564;28;45736;-62
2021/09/01 06:23:55;;;;;;;;;31.25;26.00;;;;;15.68;73.68;101807.34;5001933;28;47667;-64
2021/09/01 06:26:20;;;;;;;;;30.50;28.25;;;;;15.71;73.25;101801.03;5013005;28;45366;-65
2021/09/01 06:28:46;;;;;;;;;31.25;26.00;;;;;15.77;73.45;101801.66;5014398;28;45357;-70
2021/09/01 06:31:11;;;;;;;;;44.00;33.00;;;;;15.82;73.12;101808.56;5014672;28;45376;-64
2021/09/01 06:33:37;;;;;;;;;30.25;26.75;;;;;15.85;73.21;101816.38;5013661;28;46597;-67
2021/09/01 06:36:02;;;;;;;;;36.00;30.25;;;;;15.91;73.08;101809.06;5014258;28;45445;-69
2021/09/01 06:38:28;;;;;;;;;31.50;29.75;;;;;15.99;72.52;101799.91;5015213;28;45317;-64
2021/09/01 06:40:53;;;;;;;;;29.50;26.25;;;;;16.08;72.09;101802.16;5014988;28;45500;-62
2021/09/01 06:43:18;;;;;;;;;34.75;31.75;;;;;16.12;72.27;101801.09;5013122;28;46450;-60
2021/09/01 06:45:46;;;;;;;;;32.25;30.00;;;;;16.10;72.28;101792.34;5014578;28;45444;-64
2021/09/01 06:48:11;;;;;;;;;34.75;29.75;;;;;16.19;71.54;101804.31;5014311;28;45275;-71
2021/09/01 06:50:37;;;;;;;;;31.50;24.25;;;;;16.17;71.78;101804.41;5013451;28;45353;-55
2021/09/01 06:53:02;;;;;;;;;29.50;26.00;;;;;16.19;72.21;101809.63;5014360;28;45317;-61
2021/09/01 06:55:28;;;;;;;;;32.00;27.50;;;;;16.23;71.92;101797.94;5013153;28;46255;-63
2021/09/01 06:57:53;;;;;;;;;37.50;30.00;;;;;16.28;71.65;101798.59;5014252;28;45328;-62
2021/09/01 07:00:19;;;;;;;;;34.25;27.25;;;;;16.32;71.61;101807.31;4996271;28;45621;-63
2021/09/01 07:02:45;;;;;;;;;36.25;28.25;;;;;16.35;71.24;101800.06;5014142;28;46087;-63
2021/09/01 07:05:14;;;;;;;;;30.00;26.75;;;;;16.43;71.02;101810.34;5014164;28;45296;-65
2021/09/01 07:07:41;;;;;;;;;36.00;31.50;;;;;16.45;71.15;101803.16;5014121;28;45436;-65
2021/09/01 07:10:07;;;;;;;;;35.25;30.25;;;;;16.47;71.21;101801.31;4996484;28;45400;-69
2021/09/01 07:12:33;;;;;;;;;37.00;25.00;;;;;16.52;70.42;101800.22;4996009;28;47216;-67
2021/09/01 07:14:59;;;;;;;;;34.00;24.00;;;;;16.56;70.56;101801.81;4996259;28;45308;-64
2021/09/01 07:17:24;;;;;;;;;32.75;29.50;;;;;16.58;70.48;101789.31;5013957;28;45309;-68
2021/09/01 07:19:49;;;;;;;;;29.25;26.25;;;;;16.63;70.07;101779.34;4996546;28;45486;-68
2021/09/01 07:22:15;;;;;;;;;26.00;25.00;;;;;16.80;70.13;101792.69;5013966;28;45573;-68
2021/09/01 07:24:40;;;;;;;;;30.50;25.00;;;;;16.88;69.23;101783.50;5013801;28;45272;-69
2021/09/01 07:27:06;;;;;;;;;28.25;26.50;;;;;16.94;69.14;101777.88;5013892;28;45864;-68
2021/09/01 07:29:31;;;;;;;;;31.25;27.75;;;;;17.01;68.70;101779.38;5014351;28;45366;-68
2021/09/01 07:31:57;;;;;;;;;32.00;25.50;;;;;16.99;68.65;101772.38;5013949;28;45469;-68
2021/09/01 07:34:22;;;;;;;;;29.50;25.75;;;;;17.10;68.41;101782.53;5013640;28;45368;-68
2021/09/01 07:36:48;;;;;;;;;31.25;25.50;;;;;17.16;68.12;101779.56;5013796;28;45419;-69
2021/09/01 07:39:13;;;;;;;;;33.25;27.00;;;;;17.24;68.20;101788.00;5013958;28;45396;-68
2021/09/01 07:41:39;;;;;;;;;29.50;25.50;;;;;17.29;67.79;101782.44;5013483;28;46560;-69
2021/09/01 07:44:05;;;;;;;;;27.25;23.25;;;;;17.27;67.72;101777.22;4996077;28;45528;-69
2021/09/01 07:46:31;;;;;;;;;32.75;26.75;;;;;17.21;67.63;101777.53;5015926;28;45362;-68
2021/09/01 07:49:00;;;;;;;;;32.00;26.75;;;;;17.34;67.20;101780.44;5017606;28;45527;-68
2021/09/01 07:51:26;;;;;;;;;30.25;25.75;;;;;17.30;67.09;101778.84;5015609;28;48319;-69
2021/09/01 07:53:51;;;;;;;;;22.50;20.00;;;;;17.37;66.77;101786.47;5016743;28;45404;-69
2021/09/01 07:56:16;;;;;;;;;33.00;27.00;;;;;17.41;67.07;101792.47;5017095;28;45424;-68
2021/09/01 07:58:42;;;;;;;;;31.00;27.00;;;;;17.48;66.96;101780.59;4999428;28;45387;-67
2021/09/01 08:01:08;;;;;;;;;29.50;26.00;;;;;17.59;66.24;101776.56;5016446;28;45461;-68
2021/09/01 08:03:33;;;;;;;;;33.00;30.50;;;;;17.63;65.69;101781.63;5016530;28;45328;-68
2021/09/01 08:06:00;;;;;;;;;23.75;18.75;;;;;17.66;65.82;101770.84;5017309;28;45446;-68
2021/09/01 08:08:25;;;;;;;;;30.50;29.00;;;;;17.81;65.12;101786.94;5016652;28;45392;-68
2021/09/01 08:10:50;;;;;;;;;33.50;28.00;;;;;17.88;65.11;101788.34;5014928;28;46842;-67
2021/09/01 08:13:16;;;;;;;;;33.50;27.00;;;;;17.96;64.82;101785.28;5016447;28;45283;-68
2021/09/01 08:15:41;;;;;;;;;23.00;19.50;;;;;17.98;64.88;101785.19;5015047;28;45398;-68
2021/09/01 08:18:06;;;;;;;;;43.50;27.00;;;;;18.08;64.61;101786.50;5016625;28;45582;-67
2021/09/01 08:20:32;;;;;;;;;35.00;26.75;;;;;18.12;64.29;101782.72;5016616;28;46588;-67
2021/09/01 08:22:57;;;;;;;;;30.00;28.75;;;;;18.23;64.64;101777.69;5016597;28;45337;-69
2021/09/01 08:25:23;;;;;;;;;33.50;28.50;;;;;18.34;64.06;101781.56;5016935;28;45385;-69
2021/09/01 08:27:48;;;;;;;;;28.75;26.75;;;;;18.39;63.13;101787.50;5019403;28;45526;-68
2021/09/01 08:30:15;;;;;;;;;33.00;29.25;;;;;18.35;63.41;101783.31;5016722;28;45599;-68
2021/09/01 08:32:40;;;;;;;;;33.00;27.50;;;;;18.47;63.48;101782.63;4998253;28;45288;-67
2021/09/01 08:35:07;;;;;;;;;29.75;26.00;;;;;18.53;63.24;101787.63;5016414;28;45474;-67
2021/09/01 08:37:32;;;;;;;;;32.25;26.25;;;;;18.57;62.84;101793.66;5016821;28;45258;-68
2021/09/01 08:40:00;;;;;;;;;26.75;23.50;;;;;18.63;62.81;101797.78;5015867;28;45488;-67
2021/09/01 08:42:26;;;;;;;;;33.50;26.25;;;;;18.64;62.69;101795.03;4998008;28;45864;-67
2021/09/01 08:44:51;;;;;;;;;31.75;28.50;;;;;18.66;62.58;101792.28;5016208;28;45321;-67
2021/09/01 08:47:17;;;;;;;;;34.00;30.75;;;;;18.81;62.13;101794.09;5014709;28;45244;-67
2021/09/01 08:49:45;;;;;;;;;34.50;28.00;;;;;18.86;61.76;101783.19;5015908;28;46163;-68
2021/09/01 08:52:10;;;;;;;;;28.25;23.25;;;;;18.97;61.58;101791.47;5015939;28;45440;-67
2021/09/01 08:54:36;;;;;;;;;31.25;27.25;;;;;19.03;61.14;101789.38;4997626;28;45313;-66
2021/09/01 08:57:01;;;;;;;;;30.75;25.00;;;;;19.12;60.97;101800.41;5015972;28;45735;-67
2021/09/01 08:59:27;;;;;;;;;34.50;28.25;;;;;19.14;61.56;101802.13;4997313;28;46622;-68
2021/09/01 09:01:55;;;;;;;;;29.00;25.25;;;;;19.16;61.00;101797.56;5015431;28;45381;-67
2021/09/01 09:04:21;;;;;;;;;30.50;27.50;;;;;19.25;61.34;101807.69;4997669;28;45411;-66
2021/09/01 09:06:55;;;;;;;;;36.75;30.75;;;;;19.34;59.88;101803.63;5015681;28;45294;-69
2021/09/01 09:09:30;;;;;;;;;35.25;32.50;;;;;19.34;60.10;101792.94;5013927;28;46006;-68
2021/09/01 09:11:57;;;;;;;;;41.25;34.00;;;;;19.42;59.90;101783.56;5013477;28;45436;-67
2021/09/01 09:14:30;;;;;;;;;31.75;30.00;;;;;19.57;59.02;101788.94;5014160;28;45463;-67
2021/09/01 09:17:13;;;;;;;;;35.50;30.50;;;;;19.53;59.80;101772.25;5015658;28;45347;-71
2021/09/01 09:19:49;;;;;;;;;32.00;24.25;;;;;19.83;59.22;101784.72;5013808;28;48503;-67
2021/09/01 09:22:23;;;;;;;;;24.50;23.00;;;;;20.00;58.63;101785.53;5015096;28;45404;-68
2021/09/01 09:25:10;;;;;;;;;21.50;19.75;;;;;19.97;58.38;101781.22;5014232;28;45315;-67
2021/09/01 09:27:53;;;;;;;;;26.75;25.00;;;;;20.09;58.45;101787.66;5015728;28;45260;-67
2021/09/01 09:30:32;;;;;;;;;25.75;24.50;;;;;20.34;58.15;101791.47;5014959;28;46526;-68
2021/09/01 09:33:11;;;;;;;;;24.50;23.50;;;;;20.60;56.73;101794.28;5014996;28;45282;-67
2021/09/01 09:36:00;;;;;;;;;27.25;21.75;;;;;20.85;56.56;101777.56;5014229;28;45340;-65
2021/09/01 09:38:31;;;;;;;;;29.25;24.50;;;;;21.12;56.16;101786.59;4997125;28;45606;-67
2021/09/01 09:40:59;;;;;;;;;26.00;21.00;;;;;21.20;55.94;101764.66;5013507;28;46906;-68
2021/09/01 09:43:25;;;;;;;;;27.50;22.00;;;;;21.38;54.78;101775.94;4997225;28;45447;-65
2021/09/01 09:46:03;;;;;;;;;26.25;24.25;;;;;21.29;54.47;101770.25;5015198;28;45217;-68
2021/09/01 09:48:31;;;;;;;;;27.00;22.75;;;;;21.30;53.65;101780.00;5015398;28;45467;-68
2021/09/01 09:50:57;;;;;;;;;28.75;24.50;;;;;21.25;54.78;101774.09;5014796;28;46172;-67
2021/09/01 09:53:35;;;;;;;;;27.75;22.50;;;;;21.27;54.25;101776.69;5013616;28;45313;-67
2021/09/01 09:56:11;;;;;;;;;28.00;24.25;;;;;21.19;53.71;101787.88;5013601;28;45327;-67
2021/09/01 09:58:40;;;;;;;;;27.25;22.50;;;;;21.06;54.15;101782.47;5015303;28;45437;-67
2021/09/01 10:01:08;;;;;;;;;29.75;22.75;;;;;21.08;54.24;101783.22;5014670;28;46227;-67
2021/09/01 10:03:35;;;;;;;;;26.50;25.50;;;;;21.01;54.21;101773.91;4996792;28;45524;-68
2021/09/01 10:06:02;;;;;;;;;27.00;24.75;;;;;21.02;54.20;101776.50;5014702;28;45376;-72
2021/09/01 10:08:32;;;;;;;;;27.00;26.00;;;;;21.09;54.49;101790.31;5013594;28;45182;-72
2021/09/01 10:11:01;;;;;;;;;26.75;21.75;;;;;21.02;54.28;101786.31;5014360;28;46909;-72
2021/09/01 10:13:29;;;;;;;;;32.25;28.50;;;;;21.00;54.26;101783.75;5014814;28;45411;-69
2021/09/01 10:16:25;;;;;;;;;36.25;31.25;;;;;21.10;54.61;101781.31;5014991;28;45380;-66
2021/09/01 10:19:13;;;;;;;;;27.50;24.50;;;;;21.31;53.74;101762.16;5014866;28;45344;-66
2021/09/01 10:21:42;;;;;;;;;26.00;22.00;;;;;21.67;53.56;101771.34;4996925;28;47541;-70
2021/09/01 10:24:27;;;;;;;;;28.25;25.50;;;;;21.78;52.63;101778.66;5014761;28;45288;-67
2021/09/01 10:27:19;;;;;;;;;26.25;23.50;;;;;21.95;51.96;101773.94;5014136;28;45336;-70
2021/09/01 10:29:54;;;;;;;;;23.00;19.25;;;;;21.94;51.00;101766.88;5012891;28;45491;-66
2021/09/01 10:32:27;;;;;;;;;29.50;23.75;;;;;21.80;51.23;101781.19;5014094;28;46067;-69
2021/09/01 10:35:17;;;;;;;;;28.00;25.00;;;;;21.91;52.17;101775.97;5012343;28;45474;-67
2021/09/01 10:37:43;;;;;;;;;26.75;26.25;;;;;21.93;51.04;101762.47;5014035;28;45332;-65
2021/09/01 10:40:21;;;;;;;;;33.25;26.50;;;;;21.69;51.82;101765.84;5014300;28;45490;-66
2021/09/01 10:42:49;;;;;;;;;38.75;33.50;;;;;21.67;52.83;101751.72;5013937;28;45447;-65
2021/09/01 10:45:20;;;;;;;;;30.25;28.00;;;;;21.77;52.09;101751.97;5014124;28;45420;-68
2021/09/01 10:47:52;;;;;;;;;20.50;17.75;;;;;21.69;52.42;101753.34;4996054;28;45387;-68
2021/09/01 10:50:23;;;;;;;;;19.50;18.75;;;;;21.69;52.10;101742.63;5014030;28;45271;-71
2021/09/01 10:52:59;;;;;;;;;23.75;21.75;;;;;21.60;52.00;101746.75;5013820;28;46020;-67
2021/09/01 10:55:26;;;;;;;;;23.25;23.25;;;;;21.58;51.72;101745.16;5013832;28;45443;-67
2021/09/01 10:58:18;;;;;;;;;24.50;24.50;;;;;21.63;52.55;101743.06;5013571;28;45389;-66
2021/09/01 11:00:44;;;;;;;;;26.00;23.75;;;;;21.70;52.52;101732.75;5013571;28;45423;-68
2021/09/01 11:03:10;;;;;;;;;26.25;22.25;;;;;21.87;52.46;101737.84;5014068;28;45884;-66
2021/09/01 11:05:36;;;;;;;;;23.75;20.00;;;;;22.09;51.88;101733.63;4995413;28;45454;-66
2021/09/01 11:08:02;;;;;;;;;26.25;23.25;;;;;22.18;50.73;101734.78;5011708;28;45296;-67
2021/09/01 11:10:29;;;;;;;;;24.50;22.00;;;;;22.29;51.22;101731.34;5013605;28;45399;-69